메인 페이지
METAR-TAF:

METAR-TAF

공항 :

푸나푸티 국제공항

푸나푸티, 투발루

위도: 08-31S, 경도: 179-13E, 고도: 1m

현재 날씨관측

예보는 55분 전, 20:00시(UTC)에 발표되었습니다.
동북동11kt
온도 29°C
습도 79%
기압 1011 hPa
시정 10km 이상
고도 1700ft 상공 구름 보통, 타워링 적운.
고도 29000ft 상공 구름 많음

METAR: NGFU 202000Z 06011KT 9999 SCT017TCU BKN290 29/25 Q1011

시각: 08:55 (20:55 UTC)

예보

예보는 3 시간 46분 전, 17:09시(UTC)에 발표되었습니다.
예보 대상 시간: 20일 18시부터 21일 18시까지 (UTC)
7kt
고도 1800ft 상공 구름 보통
고도 10000ft 상공 구름 많음
일시적
20일 18시부터 21일 09시까지 (UTC)
시정: 3000m
고도 1500ft 상공 구름 많음
고도 1700ft 상공 구름 조금, 적란운.
뇌우, 비

TAF: NGFU 201709Z 2018/2118 08007KT 9999-SHRA SCT018 BKN100 TEMPO 2018/2109 3000 TSRA BKN015 FEW017CB

4,000개 이상의 공항 관측 자료 및 예보 (METAR 및 TAF 보고).

지도상에서 검색 가능한 기상관측소가 노란 점과 빨간 점으로 표시되어 있습니다.

기상관측소 명을 보려면 표시 위로 마우스를 이동하세요.

날씨 관측과 예보를 보려면 클릭하세요.

지도 변경 : 확대하려면 엑스 표시가 있는 녹색 버튼, 축소하려면 빼기 표시가 있는 녹색 버튼, 다음 페이지의 지도를 보려면 녹색 화살표를 클릭하세요.


METAR-TAF: